createdAt,value
2023-01-13T00:01:28.147Z,71.77
2023-01-13T00:03:56.844Z,71.63
2023-01-13T00:06:29.576Z,71.69
2023-01-13T00:08:58.094Z,71.70
2023-01-13T00:11:26.495Z,71.90
2023-01-13T00:13:54.959Z,72.04
2023-01-13T00:16:22.994Z,72.11
2023-01-13T00:18:54.022Z,71.83
2023-01-13T00:21:24.715Z,71.97
2023-01-13T00:23:54.327Z,72.11
2023-01-13T00:26:26.524Z,72.05
2023-01-13T00:28:58.756Z,72.04
2023-01-13T00:31:28.687Z,72.05
2023-01-13T00:33:58.427Z,72.01
2023-01-13T00:36:27.004Z,72.10
2023-01-13T00:38:55.201Z,72.21
2023-01-13T00:41:24.884Z,72.26
2023-01-13T00:43:53.161Z,72.11
2023-01-13T00:46:22.542Z,72.13
2023-01-13T00:48:51.681Z,72.10
2023-01-13T00:51:21.160Z,72.25
2023-01-13T00:53:51.844Z,72.36
2023-01-13T00:56:38.378Z,72.40
2023-01-13T00:59:10.204Z,72.57
2023-01-13T01:02:45.632Z,72.54
2023-01-13T01:06:55.426Z,72.53
2023-01-13T01:10:45.179Z,72.42
2023-01-13T01:14:36.850Z,72.47
2023-01-13T01:18:28.638Z,72.26
2023-01-13T01:22:40.761Z,72.10
2023-01-13T01:26:33.164Z,71.93
2023-01-13T01:30:24.174Z,71.72
2023-01-13T01:34:35.347Z,71.64
2023-01-13T01:38:45.649Z,71.51
2023-01-13T01:42:54.740Z,71.26
2023-01-13T01:46:44.893Z,71.01
2023-01-13T01:50:43.631Z,70.87
2023-01-13T01:54:16.710Z,70.77
2023-01-13T01:58:13.260Z,70.69
2023-01-13T02:02:05.358Z,70.63
2023-01-13T02:05:55.161Z,70.20
2023-01-13T02:09:44.234Z,69.85
2023-01-13T02:13:34.065Z,69.96
2023-01-13T02:17:15.273Z,69.67
2023-01-13T02:21:02.354Z,69.69
2023-01-13T02:25:15.193Z,69.41
2023-01-13T02:29:23.584Z,69.58
2023-01-13T02:33:15.354Z,69.40
2023-01-13T02:36:13.187Z,69.55
2023-01-13T02:39:25.080Z,69.54
2023-01-13T02:43:30.571Z,69.24
2023-01-13T02:47:22.893Z,69.09
2023-01-13T02:51:12.173Z,69.00
2023-01-13T02:55:01.907Z,69.10
2023-01-13T02:58:52.051Z,68.99
2023-01-13T03:02:24.172Z,69.16
2023-01-13T03:06:13.430Z,69.10
2023-01-13T03:10:11.066Z,68.81
2023-01-13T03:13:56.967Z,68.66
2023-01-13T03:17:47.006Z,68.91
2023-01-13T03:21:38.665Z,69.14
2023-01-13T03:25:42.872Z,69.39
2023-01-13T03:29:37.748Z,69.77
2023-01-13T03:33:27.159Z,69.51
2023-01-13T03:37:08.404Z,69.60
2023-01-13T03:41:01.353Z,69.61
2023-01-13T03:44:53.783Z,69.66
2023-01-13T03:48:51.814Z,69.64
2023-01-13T03:52:32.137Z,69.44
2023-01-13T03:56:21.012Z,69.40
2023-01-13T03:59:49.591Z,69.58
2023-01-13T04:03:44.521Z,69.36
2023-01-13T04:07:42.768Z,69.43
2023-01-13T04:11:34.887Z,69.54
2023-01-13T04:15:24.167Z,69.41
2023-01-13T04:19:13.135Z,69.41
2023-01-13T04:22:41.865Z,69.61
2023-01-13T04:26:30.824Z,69.38
2023-01-13T04:29:59.281Z,69.26
2023-01-13T04:33:48.564Z,69.19
2023-01-13T04:37:38.936Z,69.33
2023-01-13T04:41:07.492Z,69.40
2023-01-13T04:44:56.784Z,69.21
2023-01-13T04:48:45.985Z,69.18
2023-01-13T04:52:15.167Z,69.25
2023-01-13T04:56:04.726Z,69.13
2023-01-13T04:58:52.808Z,69.31
2023-01-13T05:02:04.496Z,68.82
2023-01-13T05:05:53.852Z,69.14
2023-01-13T05:09:43.451Z,68.98
2023-01-13T05:13:10.375Z,69.16
2023-01-13T05:16:35.517Z,69.06
2023-01-13T05:20:25.127Z,69.08
2023-01-13T05:24:12.156Z,68.96
2023-01-13T05:28:01.415Z,68.69
2023-01-13T05:31:29.994Z,69.00
2023-01-13T05:35:19.115Z,68.69
2023-01-13T05:39:02.667Z,68.81
2023-01-13T05:42:59.305Z,68.78
2023-01-13T05:46:47.941Z,68.74
2023-01-13T05:50:20.062Z,68.94
2023-01-13T05:53:48.982Z,68.74
2023-01-13T05:57:30.117Z,69.06
2023-01-13T06:00:28.638Z,68.93
2023-01-13T06:03:55.998Z,68.83
2023-01-13T06:06:55.445Z,68.81
2023-01-13T06:10:43.280Z,68.92
2023-01-13T06:13:50.566Z,69.00
2023-01-13T06:17:18.888Z,69.19
2023-01-13T06:20:41.358Z,69.10
2023-01-13T06:23:19.213Z,69.21
2023-01-13T06:26:36.017Z,69.24
2023-01-13T06:29:41.129Z,69.32
2023-01-13T06:32:27.817Z,69.22
2023-01-13T06:35:05.650Z,69.31
2023-01-13T06:37:36.477Z,69.48
2023-01-13T06:40:18.394Z,69.47
2023-01-13T06:43:35.640Z,69.35
2023-01-13T06:46:26.145Z,69.46
2023-01-13T06:49:08.028Z,69.34
2023-01-13T06:52:30.925Z,69.35
2023-01-13T06:55:43.840Z,69.29
2023-01-13T06:58:15.373Z,69.38
2023-01-13T07:01:05.249Z,69.15
2023-01-13T07:03:52.341Z,69.05
2023-01-13T07:06:22.256Z,69.18
2023-01-13T07:09:16.446Z,69.16
2023-01-13T07:12:00.081Z,69.01
2023-01-13T07:15:16.374Z,69.08
2023-01-13T07:17:46.868Z,68.97
2023-01-13T07:20:19.637Z,69.05
2023-01-13T07:23:08.700Z,69.26
2023-01-13T07:29:39.912Z,69.20
2023-01-13T07:32:11.613Z,68.96
2023-01-13T07:34:42.700Z,68.91
2023-01-13T07:37:20.987Z,68.77
2023-01-13T07:39:54.195Z,68.93
2023-01-13T07:42:53.287Z,69.09
2023-01-13T07:45:32.680Z,68.86
2023-01-13T07:48:46.449Z,68.97
2023-01-13T07:51:36.362Z,68.93
2023-01-13T07:54:14.677Z,69.07
2023-01-13T07:57:08.677Z,68.83
2023-01-13T07:59:52.453Z,68.74
2023-01-13T08:02:23.265Z,68.58
2023-01-13T08:05:41.366Z,68.38
2023-01-13T08:08:18.784Z,68.59
2023-01-13T08:10:52.869Z,68.43
2023-01-13T08:13:57.065Z,68.45
2023-01-13T08:16:42.874Z,68.35
2023-01-13T08:19:17.006Z,68.10
2023-01-13T08:22:05.264Z,68.11
2023-01-13T08:24:42.206Z,68.07
2023-01-13T08:27:34.252Z,68.07
2023-01-13T08:30:06.326Z,67.98
2023-01-13T08:33:15.407Z,67.92
2023-01-13T08:35:53.662Z,67.82
2023-01-13T08:38:39.351Z,67.58
2023-01-13T08:41:58.884Z,67.75
2023-01-13T08:44:36.984Z,67.48
2023-01-13T08:47:12.667Z,67.79
2023-01-13T08:49:43.805Z,67.69
2023-01-13T08:52:22.788Z,67.92
2023-01-13T08:55:01.769Z,67.90
2023-01-13T08:57:32.586Z,67.94
2023-01-13T09:00:17.402Z,68.06
2023-01-13T09:03:13.633Z,68.07
2023-01-13T09:05:42.157Z,68.28
2023-01-13T09:08:11.137Z,68.34
2023-01-13T09:10:42.565Z,68.65
2023-01-13T09:13:15.267Z,68.86
2023-01-13T09:15:46.570Z,68.54
2023-01-13T09:18:18.217Z,68.71
2023-01-13T09:20:49.368Z,68.87
2023-01-13T09:23:39.970Z,68.78
2023-01-13T09:26:11.238Z,68.88
2023-01-13T09:28:49.878Z,68.67
2023-01-13T09:31:40.903Z,68.60
2023-01-13T09:34:42.644Z,68.72
2023-01-13T09:37:11.544Z,68.74
2023-01-13T09:43:55.979Z,68.73
2023-01-13T09:47:16.753Z,68.61
2023-01-13T09:50:35.472Z,68.38
2023-01-13T09:53:52.236Z,68.05
2023-01-13T09:56:38.520Z,67.85
2023-01-13T09:59:17.002Z,68.07
2023-01-13T10:02:36.856Z,68.16
2023-01-13T10:05:19.796Z,68.09
2023-01-13T10:08:27.257Z,67.86
2023-01-13T10:11:37.611Z,67.81
2023-01-13T10:14:22.792Z,67.57
2023-01-13T10:17:02.065Z,67.56
2023-01-13T10:20:14.070Z,67.53
2023-01-13T10:22:57.191Z,67.10
2023-01-13T10:25:43.404Z,67.06
2023-01-13T10:28:26.391Z,66.37
2023-01-13T10:30:54.773Z,65.63
2023-01-13T10:33:30.660Z,65.67
2023-01-13T10:36:32.581Z,65.65
2023-01-13T10:39:39.382Z,65.35
2023-01-13T10:42:24.206Z,64.98
2023-01-13T10:45:34.821Z,65.07
2023-01-13T10:48:15.150Z,65.08
2023-01-13T10:50:48.855Z,64.23
2023-01-13T10:53:58.523Z,64.03
2023-01-13T10:56:42.348Z,63.72
2023-01-13T10:59:23.278Z,63.77
2023-01-13T11:02:23.744Z,63.36
2023-01-13T15:05:20.106Z,76.57
2023-01-13T15:08:06.077Z,76.19
2023-01-13T15:10:49.783Z,76.56
2023-01-13T15:13:36.274Z,76.98
2023-01-13T15:16:12.742Z,76.99
2023-01-13T15:18:41.427Z,77.61
2023-01-13T15:21:10.393Z,78.00
2023-01-13T15:23:41.300Z,78.25
2023-01-13T15:26:29.384Z,78.08
2023-01-13T15:29:05.805Z,78.34
2023-01-13T15:31:39.731Z,78.63
2023-01-13T15:34:13.536Z,79.05
2023-01-13T15:36:43.575Z,79.73
2023-01-13T15:39:15.680Z,79.36
2023-01-13T15:42:03.108Z,79.14
2023-01-13T15:44:50.015Z,78.84
2023-01-13T15:47:18.412Z,78.51
2023-01-13T15:49:46.728Z,78.65
2023-01-13T15:52:26.794Z,78.80
2023-01-13T15:54:55.105Z,78.93
2023-01-13T15:57:27.358Z,79.76
2023-01-13T16:00:04.054Z,79.14
2023-01-13T16:02:35.531Z,79.43
2023-01-13T16:05:03.959Z,79.41
2023-01-13T16:07:32.059Z,79.29
2023-01-13T16:10:01.946Z,79.22
2023-01-13T16:12:29.734Z,79.50
2023-01-13T16:14:57.804Z,79.37
2023-01-13T16:17:30.061Z,79.52
2023-01-13T16:19:57.867Z,79.66
2023-01-13T16:22:25.805Z,79.84
2023-01-13T16:24:54.468Z,79.78
2023-01-13T16:27:24.343Z,79.63
2023-01-13T16:29:52.880Z,79.77
2023-01-13T16:32:21.274Z,79.78
2023-01-13T16:34:50.449Z,79.57
2023-01-13T16:37:26.489Z,79.81
2023-01-13T16:39:54.456Z,79.61
2023-01-13T16:42:22.253Z,79.81
2023-01-13T16:44:52.806Z,79.64
2023-01-13T16:47:22.774Z,79.94
2023-01-13T16:49:50.813Z,80.02
2023-01-13T16:52:18.661Z,79.97
2023-01-13T16:54:46.549Z,80.43
2023-01-13T16:57:14.445Z,80.53
2023-01-13T16:59:42.498Z,80.50
2023-01-13T17:02:14.879Z,80.47
2023-01-13T17:04:43.564Z,80.75
2023-01-13T17:07:16.674Z,80.69
2023-01-13T17:09:45.541Z,80.73
2023-01-13T17:12:13.305Z,81.00
2023-01-13T17:14:43.295Z,81.05
2023-01-13T17:17:28.934Z,80.98
2023-01-13T17:19:56.858Z,81.25
2023-01-13T17:22:24.930Z,81.18
2023-01-13T17:24:52.715Z,81.36
2023-01-13T17:27:21.444Z,81.40
2023-01-13T17:29:50.190Z,81.53
2023-01-13T17:32:19.459Z,81.34
2023-01-13T17:34:47.430Z,81.26
2023-01-13T17:37:15.961Z,81.20
2023-01-13T17:39:44.727Z,81.23
2023-01-13T17:42:16.200Z,81.17
2023-01-13T17:44:44.200Z,80.98
2023-01-13T17:47:12.301Z,80.99
2023-01-13T17:49:40.397Z,80.84
2023-01-13T17:52:08.153Z,80.87
2023-01-13T17:54:36.033Z,80.94
2023-01-13T17:57:04.046Z,80.97
2023-01-13T17:59:32.211Z,81.04
2023-01-13T18:02:00.400Z,80.83
2023-01-13T18:04:28.919Z,80.85
2023-01-13T18:06:57.207Z,80.77
2023-01-13T18:09:26.567Z,80.74
2023-01-13T18:11:54.626Z,80.65
2023-01-13T18:14:22.560Z,80.52
2023-01-13T18:16:51.448Z,80.49
2023-01-13T18:19:38.218Z,80.31
2023-01-13T18:22:24.642Z,80.19
2023-01-13T18:25:10.985Z,80.04
2023-01-13T18:27:41.442Z,80.13
2023-01-13T18:30:10.120Z,80.17
2023-01-13T18:32:38.259Z,80.14
2023-01-13T18:35:10.549Z,80.04
2023-01-13T18:37:42.389Z,80.03
2023-01-13T18:40:12.635Z,80.06
2023-01-13T18:42:58.776Z,80.33
2023-01-13T18:45:29.907Z,79.97
2023-01-13T18:48:01.692Z,80.01
2023-01-13T18:50:30.415Z,80.02
2023-01-13T18:52:58.648Z,79.79
2023-01-13T18:55:28.616Z,79.75
2023-01-13T18:57:57.096Z,79.41
2023-01-13T19:00:26.820Z,79.32
2023-01-13T19:05:35.491Z,79.42
2023-01-13T19:08:04.488Z,79.61
2023-01-13T19:10:33.720Z,79.61
2023-01-13T19:13:01.767Z,79.68
2023-01-13T19:15:30.016Z,80.08
2023-01-13T19:17:57.808Z,80.17
2023-01-13T19:20:26.748Z,80.56
2023-01-13T19:22:55.087Z,80.73
2023-01-13T19:25:22.934Z,81.05
2023-01-13T19:27:50.729Z,80.86
2023-01-13T19:30:18.923Z,80.92
2023-01-13T19:32:46.749Z,80.88
2023-01-13T19:35:17.703Z,80.65
2023-01-13T19:37:45.982Z,80.82
2023-01-13T19:40:14.068Z,80.82
2023-01-13T19:43:04.398Z,80.74
2023-01-13T19:45:35.078Z,80.64
2023-01-13T19:48:05.984Z,80.59
2023-01-13T19:50:38.756Z,80.37
2023-01-13T19:53:07.858Z,80.02
2023-01-13T19:55:36.655Z,79.80
2023-01-13T19:58:04.393Z,79.88
2023-01-13T20:00:32.654Z,79.92
2023-01-13T20:03:03.478Z,79.92
2023-01-13T20:05:31.379Z,79.99
2023-01-13T20:07:59.097Z,80.12
2023-01-13T20:10:27.665Z,80.12
2023-01-13T20:12:55.407Z,80.15
2023-01-13T20:15:24.271Z,80.17
2023-01-13T20:17:52.204Z,80.14
2023-01-13T20:20:20.621Z,80.08
2023-01-13T20:22:49.709Z,79.99
2023-01-13T20:25:18.816Z,79.82
2023-01-13T20:27:47.855Z,79.93
2023-01-13T20:30:16.201Z,80.08
2023-01-13T20:32:44.617Z,79.93
2023-01-13T20:35:12.680Z,80.00
2023-01-13T20:37:42.068Z,79.78
2023-01-13T20:40:19.122Z,79.60
2023-01-13T20:42:46.963Z,79.52
2023-01-13T20:45:18.098Z,79.36
2023-01-13T20:47:46.085Z,79.31
2023-01-13T20:50:14.429Z,79.14
2023-01-13T20:52:42.363Z,78.94
2023-01-13T20:55:10.608Z,78.83
2023-01-13T20:57:38.913Z,78.87
2023-01-13T21:00:07.375Z,78.76
2023-01-13T21:02:35.097Z,78.51
2023-01-13T21:05:02.938Z,78.31
2023-01-13T21:07:30.863Z,78.02
2023-01-13T21:09:59.008Z,77.93
2023-01-13T21:12:45.286Z,77.60
2023-01-13T21:15:20.159Z,76.96
2023-01-13T21:18:09.273Z,76.77
2023-01-13T21:20:38.717Z,76.58
2023-01-13T21:23:07.234Z,76.13
2023-01-13T21:25:37.285Z,75.81
2023-01-13T21:28:10.274Z,76.05
2023-01-13T21:30:39.537Z,75.77
2023-01-13T21:33:07.515Z,75.81
2023-01-13T21:35:38.329Z,75.69
2023-01-13T21:38:06.444Z,75.50
2023-01-13T21:40:34.719Z,75.66
2023-01-13T21:43:21.036Z,75.59
2023-01-13T21:46:08.025Z,75.70
2023-01-13T21:48:35.936Z,75.62
2023-01-13T21:51:04.274Z,75.57
2023-01-13T21:53:32.029Z,75.43
2023-01-13T21:55:59.844Z,75.38
2023-01-13T21:58:27.954Z,75.49
2023-01-13T22:00:56.060Z,75.16
2023-01-13T22:03:23.991Z,75.02
2023-01-13T22:05:56.489Z,74.85
2023-01-13T22:08:24.298Z,74.65
2023-01-13T22:10:58.603Z,74.20
2023-01-13T22:13:47.739Z,74.14
2023-01-13T22:16:15.926Z,74.11
2023-01-13T22:18:44.103Z,74.00
2023-01-13T22:21:12.068Z,74.16
2023-01-13T22:23:39.827Z,74.06
2023-01-13T22:26:08.436Z,73.91
2023-01-13T22:28:46.688Z,73.94
2023-01-13T22:31:17.190Z,73.85
2023-01-13T22:33:48.427Z,73.95
2023-01-13T22:36:16.405Z,74.24
2023-01-13T22:38:44.751Z,74.08
2023-01-13T22:41:12.620Z,73.97
2023-01-13T22:43:40.613Z,73.82
2023-01-13T22:46:13.482Z,73.91
2023-01-13T22:48:41.811Z,73.72
2023-01-13T22:51:14.042Z,73.75
2023-01-13T22:53:42.946Z,73.81
2023-01-13T22:56:17.197Z,73.63
2023-01-13T22:58:45.508Z,73.51
2023-01-13T23:01:16.914Z,73.47
2023-01-13T23:03:47.989Z,73.51
2023-01-13T23:06:18.260Z,72.99
2023-01-13T23:08:46.962Z,73.23
2023-01-13T23:11:16.701Z,73.04
2023-01-13T23:13:45.030Z,72.92
2023-01-13T23:16:15.289Z,73.02
2023-01-13T23:18:45.359Z,73.17
2023-01-13T23:21:27.082Z,73.13
2023-01-13T23:23:57.253Z,73.35
2023-01-13T23:26:28.497Z,73.26
2023-01-13T23:29:00.993Z,73.27
2023-01-13T23:31:29.243Z,73.44
2023-01-13T23:33:57.157Z,73.43
2023-01-13T23:36:27.440Z,73.58
2023-01-13T23:38:57.249Z,73.49
2023-01-13T23:41:26.729Z,73.56
2023-01-13T23:43:57.514Z,73.59
2023-01-13T23:46:26.374Z,73.79
2023-01-13T23:48:55.400Z,74.00
2023-01-13T23:51:25.354Z,73.92
2023-01-13T23:53:54.161Z,74.07
2023-01-13T23:56:24.647Z,74.22
2023-01-13T23:58:52.734Z,74.39
